sensor_id;sensor_type;location;lat;lon;timestamp;P1;durP1;ratioP1;P2;durP2;ratioP2
23304;SDS011;11821;51.456;8.844;2022-12-29T00:01:30;1.23;;;1.13;;
23304;SDS011;11821;51.456;8.844;2022-12-29T00:03:57;5.00;;;1.90;;
23304;SDS011;11821;51.456;8.844;2022-12-29T00:06:24;1.92;;;1.20;;
23304;SDS011;11821;51.456;8.844;2022-12-29T00:08:50;1.35;;;1.25;;
23304;SDS011;11821;51.456;8.844;2022-12-29T00:11:18;1.58;;;1.42;;
23304;SDS011;11821;51.456;8.844;2022-12-29T00:13:45;2.60;;;1.88;;
23304;SDS011;11821;51.456;8.844;2022-12-29T00:16:30;1.38;;;1.27;;
23304;SDS011;11821;51.456;8.844;2022-12-29T00:18:57;1.55;;;1.38;;
23304;SDS011;11821;51.456;8.844;2022-12-29T00:21:24;5.75;;;2.17;;
23304;SDS011;11821;51.456;8.844;2022-12-29T00:24:13;1.92;;;1.50;;
23304;SDS011;11821;51.456;8.844;2022-12-29T00:26:54;2.15;;;1.45;;
23304;SDS011;11821;51.456;8.844;2022-12-29T00:29:40;2.58;;;1.70;;
23304;SDS011;11821;51.456;8.844;2022-12-29T00:32:25;3.00;;;1.42;;
23304;SDS011;11821;51.456;8.844;2022-12-29T00:35:11;1.63;;;1.40;;
23304;SDS011;11821;51.456;8.844;2022-12-29T00:37:43;1.85;;;1.70;;
23304;SDS011;11821;51.456;8.844;2022-12-29T00:40:28;2.88;;;1.48;;
23304;SDS011;11821;51.456;8.844;2022-12-29T00:43:13;1.60;;;1.50;;
23304;SDS011;11821;51.456;8.844;2022-12-29T00:45:59;3.03;;;1.60;;
23304;SDS011;11821;51.456;8.844;2022-12-29T00:48:25;1.85;;;1.70;;
23304;SDS011;11821;51.456;8.844;2022-12-29T00:51:11;1.98;;;1.52;;
23304;SDS011;11821;51.456;8.844;2022-12-29T00:53:38;1.55;;;1.45;;
23304;SDS011;11821;51.456;8.844;2022-12-29T00:56:04;2.22;;;1.45;;
23304;SDS011;11821;51.456;8.844;2022-12-29T00:58:31;1.52;;;1.42;;
23304;SDS011;11821;51.456;8.844;2022-12-29T01:01:02;1.80;;;1.30;;
23304;SDS011;11821;51.456;8.844;2022-12-29T01:03:29;2.10;;;1.40;;
23304;SDS011;11821;51.456;8.844;2022-12-29T01:05:56;1.63;;;1.40;;
23304;SDS011;11821;51.456;8.844;2022-12-29T01:08:22;1.38;;;1.27;;
23304;SDS011;11821;51.456;8.844;2022-12-29T01:11:00;2.00;;;1.20;;
23304;SDS011;11821;51.456;8.844;2022-12-29T01:13:27;1.40;;;1.00;;
23304;SDS011;11821;51.456;8.844;2022-12-29T01:15:54;1.35;;;1.15;;
23304;SDS011;11821;51.456;8.844;2022-12-29T01:18:21;0.88;;;0.85;;
23304;SDS011;11821;51.456;8.844;2022-12-29T01:20:48;3.35;;;1.23;;
23304;SDS011;11821;51.456;8.844;2022-12-29T01:23:15;0.98;;;0.88;;
23304;SDS011;11821;51.456;8.844;2022-12-29T01:25:42;1.55;;;1.15;;
23304;SDS011;11821;51.456;8.844;2022-12-29T01:28:08;1.58;;;1.13;;
23304;SDS011;11821;51.456;8.844;2022-12-29T01:30:37;1.52;;;1.10;;
23304;SDS011;11821;51.456;8.844;2022-12-29T01:33:04;1.10;;;1.00;;
23304;SDS011;11821;51.456;8.844;2022-12-29T01:35:30;1.33;;;1.05;;
23304;SDS011;11821;51.456;8.844;2022-12-29T01:37:57;2.03;;;1.30;;
23304;SDS011;11821;51.456;8.844;2022-12-29T01:40:24;1.00;;;0.90;;
23304;SDS011;11821;51.456;8.844;2022-12-29T01:42:51;0.88;;;0.82;;
23304;SDS011;11821;51.456;8.844;2022-12-29T01:45:18;0.80;;;0.80;;
23304;SDS011;11821;51.456;8.844;2022-12-29T01:47:58;1.90;;;0.95;;
23304;SDS011;11821;51.456;8.844;2022-12-29T01:52:59;0.85;;;0.80;;
23304;SDS011;11821;51.456;8.844;2022-12-29T01:55:27;1.95;;;0.70;;
23304;SDS011;11821;51.456;8.844;2022-12-29T01:57:54;1.15;;;0.80;;
23304;SDS011;11821;51.456;8.844;2022-12-29T02:00:23;1.00;;;0.85;;
23304;SDS011;11821;51.456;8.844;2022-12-29T02:02:50;0.80;;;0.70;;
23304;SDS011;11821;51.456;8.844;2022-12-29T02:05:20;0.82;;;0.70;;
23304;SDS011;11821;51.456;8.844;2022-12-29T02:07:47;0.60;;;0.60;;
23304;SDS011;11821;51.456;8.844;2022-12-29T02:10:15;0.70;;;0.70;;
23304;SDS011;11821;51.456;8.844;2022-12-29T02:12:41;1.17;;;0.60;;
23304;SDS011;11821;51.456;8.844;2022-12-29T02:15:08;0.52;;;0.52;;
23304;SDS011;11821;51.456;8.844;2022-12-29T02:33:50;2.15;;;0.70;;
23304;SDS011;11821;51.456;8.844;2022-12-29T02:36:30;0.88;;;0.70;;
23304;SDS011;11821;51.456;8.844;2022-12-29T02:44:37;0.77;;;0.50;;
23304;SDS011;11821;51.456;8.844;2022-12-29T02:47:10;0.70;;;0.70;;
23304;SDS011;11821;51.456;8.844;2022-12-29T02:50:20;1.25;;;0.60;;
23304;SDS011;11821;51.456;8.844;2022-12-29T02:52:30;2.55;;;0.88;;
23304;SDS011;11821;51.456;8.844;2022-12-29T02:54:58;0.60;;;0.60;;
23304;SDS011;11821;51.456;8.844;2022-12-29T03:00:08;0.73;;;0.60;;
23304;SDS011;11821;51.456;8.844;2022-12-29T03:05:21;0.60;;;0.60;;
23304;SDS011;11821;51.456;8.844;2022-12-29T03:07:55;0.30;;;0.30;;
23304;SDS011;11821;51.456;8.844;2022-12-29T03:23:43;0.60;;;0.40;;
23304;SDS011;11821;51.456;8.844;2022-12-29T03:26:16;1.20;;;0.30;;
23304;SDS011;11821;51.456;8.844;2022-12-29T03:28:46;0.40;;;0.30;;
23304;SDS011;11821;51.456;8.844;2022-12-29T03:31:19;1.23;;;0.30;;
23304;SDS011;11821;51.456;8.844;2022-12-29T03:33:47;0.98;;;0.40;;
23304;SDS011;11821;51.456;8.844;2022-12-29T03:36:24;0.22;;;0.20;;
23304;SDS011;11821;51.456;8.844;2022-12-29T03:38:56;0.22;;;0.20;;
23304;SDS011;11821;51.456;8.844;2022-12-29T03:41:25;0.47;;;0.47;;
23304;SDS011;11821;51.456;8.844;2022-12-29T03:43:53;0.20;;;0.20;;
23304;SDS011;11821;51.456;8.844;2022-12-29T03:46:20;0.50;;;0.30;;
23304;SDS011;11821;51.456;8.844;2022-12-29T03:48:46;1.13;;;0.50;;
23304;SDS011;11821;51.456;8.844;2022-12-29T03:51:13;2.15;;;0.40;;
23304;SDS011;11821;51.456;8.844;2022-12-29T03:53:40;0.93;;;0.43;;
23304;SDS011;11821;51.456;8.844;2022-12-29T03:56:07;1.05;;;0.57;;
23304;SDS011;11821;51.456;8.844;2022-12-29T03:58:34;0.40;;;0.38;;
23304;SDS011;11821;51.456;8.844;2022-12-29T04:01:09;1.00;;;0.28;;
23304;SDS011;11821;51.456;8.844;2022-12-29T04:03:37;0.50;;;0.40;;
23304;SDS011;11821;51.456;8.844;2022-12-29T04:06:04;1.50;;;0.30;;
23304;SDS011;11821;51.456;8.844;2022-12-29T04:08:42;0.40;;;0.40;;
23304;SDS011;11821;51.456;8.844;2022-12-29T04:11:09;0.30;;;0.30;;
23304;SDS011;11821;51.456;8.844;2022-12-29T04:13:36;0.38;;;0.35;;
23304;SDS011;11821;51.456;8.844;2022-12-29T04:16:07;0.73;;;0.40;;
23304;SDS011;11821;51.456;8.844;2022-12-29T04:18:35;1.33;;;0.40;;
23304;SDS011;11821;51.456;8.844;2022-12-29T04:21:02;0.30;;;0.20;;
23304;SDS011;11821;51.456;8.844;2022-12-29T04:23:36;0.50;;;0.35;;
23304;SDS011;11821;51.456;8.844;2022-12-29T04:26:06;0.52;;;0.40;;
23304;SDS011;11821;51.456;8.844;2022-12-29T04:28:35;0.40;;;0.40;;
23304;SDS011;11821;51.456;8.844;2022-12-29T04:31:20;0.63;;;0.40;;
23304;SDS011;11821;51.456;8.844;2022-12-29T04:33:49;1.25;;;0.32;;
23304;SDS011;11821;51.456;8.844;2022-12-29T04:36:15;0.40;;;0.40;;
23304;SDS011;11821;51.456;8.844;2022-12-29T04:38:42;1.60;;;0.50;;
23304;SDS011;11821;51.456;8.844;2022-12-29T04:41:09;0.22;;;0.22;;
23304;SDS011;11821;51.456;8.844;2022-12-29T04:43:38;0.43;;;0.30;;
23304;SDS011;11821;51.456;8.844;2022-12-29T04:46:36;0.30;;;0.30;;
23304;SDS011;11821;51.456;8.844;2022-12-29T04:49:08;0.68;;;0.30;;
23304;SDS011;11821;51.456;8.844;2022-12-29T04:51:46;0.50;;;0.30;;
23304;SDS011;11821;51.456;8.844;2022-12-29T04:54:14;0.40;;;0.30;;
23304;SDS011;11821;51.456;8.844;2022-12-29T04:56:44;0.32;;;0.22;;
23304;SDS011;11821;51.456;8.844;2022-12-29T04:59:13;0.30;;;0.30;;
23304;SDS011;11821;51.456;8.844;2022-12-29T05:01:44;0.20;;;0.20;;
23304;SDS011;11821;51.456;8.844;2022-12-29T05:04:14;0.50;;;0.50;;
23304;SDS011;11821;51.456;8.844;2022-12-29T05:06:42;0.33;;;0.23;;
23304;SDS011;11821;51.456;8.844;2022-12-29T05:09:09;0.38;;;0.35;;
23304;SDS011;11821;51.456;8.844;2022-12-29T05:11:36;1.02;;;0.30;;
23304;SDS011;11821;51.456;8.844;2022-12-29T05:14:02;1.55;;;0.30;;
23304;SDS011;11821;51.456;8.844;2022-12-29T05:16:31;0.60;;;0.30;;
23304;SDS011;11821;51.456;8.844;2022-12-29T05:18:58;0.30;;;0.30;;
23304;SDS011;11821;51.456;8.844;2022-12-29T05:21:25;0.40;;;0.30;;
23304;SDS011;11821;51.456;8.844;2022-12-29T05:23:52;0.30;;;0.30;;
23304;SDS011;11821;51.456;8.844;2022-12-29T05:26:19;0.22;;;0.20;;
23304;SDS011;11821;51.456;8.844;2022-12-29T05:28:56;0.60;;;0.30;;
23304;SDS011;11821;51.456;8.844;2022-12-29T05:31:23;0.57;;;0.25;;
23304;SDS011;11821;51.456;8.844;2022-12-29T05:33:50;0.20;;;0.20;;
23304;SDS011;11821;51.456;8.844;2022-12-29T05:36:17;0.28;;;0.28;;
23304;SDS011;11821;51.456;8.844;2022-12-29T05:38:48;0.28;;;0.28;;
23304;SDS011;11821;51.456;8.844;2022-12-29T05:41:18;2.03;;;0.20;;
23304;SDS011;11821;51.456;8.844;2022-12-29T05:44:07;0.20;;;0.20;;
23304;SDS011;11821;51.456;8.844;2022-12-29T05:47:03;2.60;;;2.13;;
23304;SDS011;11821;51.456;8.844;2022-12-29T05:49:38;3.60;;;2.10;;
23304;SDS011;11821;51.456;8.844;2022-12-29T05:52:17;1.70;;;1.60;;
23304;SDS011;11821;51.456;8.844;2022-12-29T05:54:44;0.70;;;0.40;;
23304;SDS011;11821;51.456;8.844;2022-12-29T05:57:13;0.20;;;0.20;;
23304;SDS011;11821;51.456;8.844;2022-12-29T05:59:43;0.30;;;0.30;;
23304;SDS011;11821;51.456;8.844;2022-12-29T06:02:10;0.52;;;0.22;;
23304;SDS011;11821;51.456;8.844;2022-12-29T06:04:39;0.63;;;0.20;;
23304;SDS011;11821;51.456;8.844;2022-12-29T06:07:07;0.15;;;0.15;;
23304;SDS011;11821;51.456;8.844;2022-12-29T06:09:40;1.27;;;0.50;;
23304;SDS011;11821;51.456;8.844;2022-12-29T06:12:08;3.40;;;0.20;;
23304;SDS011;11821;51.456;8.844;2022-12-29T06:14:35;1.13;;;0.30;;
23304;SDS011;11821;51.456;8.844;2022-12-29T06:17:03;0.20;;;0.20;;
23304;SDS011;11821;51.456;8.844;2022-12-29T06:19:31;0.52;;;0.20;;
23304;SDS011;11821;51.456;8.844;2022-12-29T06:21:58;0.28;;;0.20;;
23304;SDS011;11821;51.456;8.844;2022-12-29T06:24:24;0.40;;;0.20;;
23304;SDS011;11821;51.456;8.844;2022-12-29T06:26:51;0.32;;;0.20;;
23304;SDS011;11821;51.456;8.844;2022-12-29T06:29:18;0.70;;;0.28;;
23304;SDS011;11821;51.456;8.844;2022-12-29T06:31:46;0.25;;;0.20;;
23304;SDS011;11821;51.456;8.844;2022-12-29T06:34:14;0.60;;;0.20;;
23304;SDS011;11821;51.456;8.844;2022-12-29T06:36:41;0.47;;;0.25;;
23304;SDS011;11821;51.456;8.844;2022-12-29T06:39:07;1.40;;;0.32;;
23304;SDS011;11821;51.456;8.844;2022-12-29T06:41:34;0.13;;;0.13;;
23304;SDS011;11821;51.456;8.844;2022-12-29T06:44:20;0.38;;;0.28;;
23304;SDS011;11821;51.456;8.844;2022-12-29T06:46:54;0.30;;;0.30;;
23304;SDS011;11821;51.456;8.844;2022-12-29T06:49:20;0.32;;;0.20;;
23304;SDS011;11821;51.456;8.844;2022-12-29T06:51:47;0.00;;;0.00;;
23304;SDS011;11821;51.456;8.844;2022-12-29T06:54:14;0.57;;;0.45;;
23304;SDS011;11821;51.456;8.844;2022-12-29T06:56:40;0.47;;;0.20;;
23304;SDS011;11821;51.456;8.844;2022-12-29T06:59:07;0.25;;;0.10;;
23304;SDS011;11821;51.456;8.844;2022-12-29T07:01:35;0.30;;;0.15;;
23304;SDS011;11821;51.456;8.844;2022-12-29T07:04:02;0.13;;;0.10;;
23304;SDS011;11821;51.456;8.844;2022-12-29T07:06:29;0.30;;;0.20;;
23304;SDS011;11821;51.456;8.844;2022-12-29T07:08:56;0.40;;;0.25;;
23304;SDS011;11821;51.456;8.844;2022-12-29T07:11:27;0.20;;;0.10;;
23304;SDS011;11821;51.456;8.844;2022-12-29T07:13:54;0.75;;;0.25;;
23304;SDS011;11821;51.456;8.844;2022-12-29T07:16:21;0.17;;;0.17;;
23304;SDS011;11821;51.456;8.844;2022-12-29T07:19:14;0.73;;;0.20;;
23304;SDS011;11821;51.456;8.844;2022-12-29T07:21:46;0.57;;;0.17;;
23304;SDS011;11821;51.456;8.844;2022-12-29T07:24:13;0.28;;;0.20;;
23304;SDS011;11821;51.456;8.844;2022-12-29T07:26:42;0.30;;;0.10;;
23304;SDS011;11821;51.456;8.844;2022-12-29T07:29:09;0.43;;;0.30;;
23304;SDS011;11821;51.456;8.844;2022-12-29T07:31:39;0.55;;;0.20;;
23304;SDS011;11821;51.456;8.844;2022-12-29T07:34:07;0.50;;;0.30;;
23304;SDS011;11821;51.456;8.844;2022-12-29T07:36:34;0.20;;;0.10;;
23304;SDS011;11821;51.456;8.844;2022-12-29T07:39:00;1.52;;;0.20;;
23304;SDS011;11821;51.456;8.844;2022-12-29T07:41:27;0.15;;;0.08;;
23304;SDS011;11821;51.456;8.844;2022-12-29T07:43:53;0.20;;;0.20;;
23304;SDS011;11821;51.456;8.844;2022-12-29T07:46:54;0.13;;;0.10;;
23304;SDS011;11821;51.456;8.844;2022-12-29T07:49:21;0.80;;;0.20;;
23304;SDS011;11821;51.456;8.844;2022-12-29T07:51:50;2.65;;;0.25;;
23304;SDS011;11821;51.456;8.844;2022-12-29T07:54:20;0.15;;;0.10;;
23304;SDS011;11821;51.456;8.844;2022-12-29T07:56:48;1.17;;;0.25;;
23304;SDS011;11821;51.456;8.844;2022-12-29T07:59:20;2.53;;;0.38;;
23304;SDS011;11821;51.456;8.844;2022-12-29T08:01:52;0.38;;;0.10;;
23304;SDS011;11821;51.456;8.844;2022-12-29T08:04:19;0.00;;;0.00;;
23304;SDS011;11821;51.456;8.844;2022-12-29T08:06:46;1.08;;;0.15;;
23304;SDS011;11821;51.456;8.844;2022-12-29T08:09:12;0.20;;;0.10;;
23304;SDS011;11821;51.456;8.844;2022-12-29T08:11:39;0.38;;;0.17;;
23304;SDS011;11821;51.456;8.844;2022-12-29T08:14:09;2.05;;;0.45;;
23304;SDS011;11821;51.456;8.844;2022-12-29T08:16:44;0.57;;;0.20;;
23304;SDS011;11821;51.456;8.844;2022-12-29T08:19:11;1.08;;;0.80;;
23304;SDS011;11821;51.456;8.844;2022-12-29T08:21:37;0.40;;;0.40;;
23304;SDS011;11821;51.456;8.844;2022-12-29T08:24:04;0.35;;;0.15;;
23304;SDS011;11821;51.456;8.844;2022-12-29T08:26:31;0.63;;;0.20;;
23304;SDS011;11821;51.456;8.844;2022-12-29T08:28:58;0.88;;;0.22;;
23304;SDS011;11821;51.456;8.844;2022-12-29T08:31:24;0.45;;;0.20;;
23304;SDS011;11821;51.456;8.844;2022-12-29T08:33:52;1.58;;;0.40;;
23304;SDS011;11821;51.456;8.844;2022-12-29T08:36:18;0.50;;;0.50;;
23304;SDS011;11821;51.456;8.844;2022-12-29T08:38:45;0.40;;;0.30;;
23304;SDS011;11821;51.456;8.844;2022-12-29T08:41:12;0.47;;;0.22;;
23304;SDS011;11821;51.456;8.844;2022-12-29T08:43:38;1.05;;;0.47;;
23304;SDS011;11821;51.456;8.844;2022-12-29T08:46:05;0.60;;;0.40;;
23304;SDS011;11821;51.456;8.844;2022-12-29T08:48:32;1.73;;;0.93;;
23304;SDS011;11821;51.456;8.844;2022-12-29T08:50:58;2.30;;;1.15;;
23304;SDS011;11821;51.456;8.844;2022-12-29T08:53:25;0.98;;;0.50;;
23304;SDS011;11821;51.456;8.844;2022-12-29T08:55:56;2.05;;;0.80;;
23304;SDS011;11821;51.456;8.844;2022-12-29T08:58:23;2.30;;;1.10;;
23304;SDS011;11821;51.456;8.844;2022-12-29T09:00:51;3.13;;;0.95;;
23304;SDS011;11821;51.456;8.844;2022-12-29T09:03:20;2.65;;;1.55;;
23304;SDS011;11821;51.456;8.844;2022-12-29T09:05:50;1.75;;;1.00;;
23304;SDS011;11821;51.456;8.844;2022-12-29T09:08:17;0.73;;;0.40;;
23304;SDS011;11821;51.456;8.844;2022-12-29T09:10:44;1.52;;;0.50;;
23304;SDS011;11821;51.456;8.844;2022-12-29T09:13:11;0.55;;;0.30;;
23304;SDS011;11821;51.456;8.844;2022-12-29T09:15:38;0.35;;;0.22;;
23304;SDS011;11821;51.456;8.844;2022-12-29T09:18:05;1.58;;;0.40;;
23304;SDS011;11821;51.456;8.844;2022-12-29T09:20:32;0.55;;;0.35;;
23304;SDS011;11821;51.456;8.844;2022-12-29T09:22:59;1.98;;;0.65;;
23304;SDS011;11821;51.456;8.844;2022-12-29T09:25:26;1.00;;;0.30;;
23304;SDS011;11821;51.456;8.844;2022-12-29T09:27:53;1.00;;;0.52;;
23304;SDS011;11821;51.456;8.844;2022-12-29T09:30:20;2.95;;;0.70;;
23304;SDS011;11821;51.456;8.844;2022-12-29T09:32:47;3.40;;;0.60;;
23304;SDS011;11821;51.456;8.844;2022-12-29T09:35:15;2.78;;;0.43;;
23304;SDS011;11821;51.456;8.844;2022-12-29T09:37:42;0.77;;;0.30;;
23304;SDS011;11821;51.456;8.844;2022-12-29T09:40:22;1.60;;;0.50;;
23304;SDS011;11821;51.456;8.844;2022-12-29T09:45:43;1.15;;;0.50;;
23304;SDS011;11821;51.456;8.844;2022-12-29T09:48:20;1.88;;;0.40;;
23304;SDS011;11821;51.456;8.844;2022-12-29T09:50:49;2.70;;;0.40;;
23304;SDS011;11821;51.456;8.844;2022-12-29T09:55:50;1.13;;;0.40;;
23304;SDS011;11821;51.456;8.844;2022-12-29T09:58:29;1.00;;;0.40;;
23304;SDS011;11821;51.456;8.844;2022-12-29T10:01:02;3.45;;;1.70;;
23304;SDS011;11821;51.456;8.844;2022-12-29T10:03:40;0.77;;;0.40;;
23304;SDS011;11821;51.456;8.844;2022-12-29T10:14:33;0.50;;;0.28;;
23304;SDS011;11821;51.456;8.844;2022-12-29T10:17:00;1.70;;;0.55;;
23304;SDS011;11821;51.456;8.844;2022-12-29T10:22:28;1.65;;;0.60;;
23304;SDS011;11821;51.456;8.844;2022-12-29T10:24:51;1.92;;;0.40;;
23304;SDS011;11821;51.456;8.844;2022-12-29T10:27:19;1.58;;;0.65;;
23304;SDS011;11821;51.456;8.844;2022-12-29T10:29:48;1.10;;;0.50;;
23304;SDS011;11821;51.456;8.844;2022-12-29T10:34:57;2.50;;;0.75;;
23304;SDS011;11821;51.456;8.844;2022-12-29T10:37:39;1.02;;;0.35;;
23304;SDS011;11821;51.456;8.844;2022-12-29T10:40:15;2.30;;;0.55;;
23304;SDS011;11821;51.456;8.844;2022-12-29T10:42:50;1.45;;;0.50;;
23304;SDS011;11821;51.456;8.844;2022-12-29T10:45:18;2.22;;;0.60;;
23304;SDS011;11821;51.456;8.844;2022-12-29T10:47:53;1.98;;;0.65;;
23304;SDS011;11821;51.456;8.844;2022-12-29T10:50:21;1.60;;;0.50;;
23304;SDS011;11821;51.456;8.844;2022-12-29T10:52:48;1.48;;;0.50;;
23304;SDS011;11821;51.456;8.844;2022-12-29T10:55:17;2.60;;;0.77;;
23304;SDS011;11821;51.456;8.844;2022-12-29T10:57:45;1.90;;;0.60;;
23304;SDS011;11821;51.456;8.844;2022-12-29T11:00:19;3.10;;;1.08;;
23304;SDS011;11821;51.456;8.844;2022-12-29T11:02:52;1.80;;;0.52;;
23304;SDS011;11821;51.456;8.844;2022-12-29T11:08:19;1.50;;;0.70;;
23304;SDS011;11821;51.456;8.844;2022-12-29T11:10:57;1.73;;;0.88;;
23304;SDS011;11821;51.456;8.844;2022-12-29T11:13:25;1.63;;;0.90;;
23304;SDS011;11821;51.456;8.844;2022-12-29T11:15:52;1.88;;;0.60;;
23304;SDS011;11821;51.456;8.844;2022-12-29T11:20:52;1.17;;;0.55;;
23304;SDS011;11821;51.456;8.844;2022-12-29T11:23:39;1.50;;;0.45;;
23304;SDS011;11821;51.456;8.844;2022-12-29T11:26:13;3.40;;;0.50;;
23304;SDS011;11821;51.456;8.844;2022-12-29T11:28:41;2.70;;;0.75;;
23304;SDS011;11821;51.456;8.844;2022-12-29T11:31:08;1.88;;;0.55;;
23304;SDS011;11821;51.456;8.844;2022-12-29T11:33:35;4.05;;;0.80;;
23304;SDS011;11821;51.456;8.844;2022-12-29T11:36:04;3.15;;;0.70;;
23304;SDS011;11821;51.456;8.844;2022-12-29T11:38:42;1.13;;;0.60;;
23304;SDS011;11821;51.456;8.844;2022-12-29T11:41:13;5.28;;;0.68;;
23304;SDS011;11821;51.456;8.844;2022-12-29T11:43:44;6.07;;;0.80;;
23304;SDS011;11821;51.456;8.844;2022-12-29T11:46:32;4.50;;;0.60;;
23304;SDS011;11821;51.456;8.844;2022-12-29T11:49:00;2.13;;;0.68;;
23304;SDS011;11821;51.456;8.844;2022-12-29T11:51:29;2.03;;;0.50;;
23304;SDS011;11821;51.456;8.844;2022-12-29T11:53:57;2.97;;;0.77;;
23304;SDS011;11821;51.456;8.844;2022-12-29T11:56:35;1.10;;;0.45;;
23304;SDS011;11821;51.456;8.844;2022-12-29T12:01:48;1.13;;;0.52;;
23304;SDS011;11821;51.456;8.844;2022-12-29T12:04:16;2.15;;;0.70;;
23304;SDS011;11821;51.456;8.844;2022-12-29T12:06:47;2.55;;;1.00;;
23304;SDS011;11821;51.456;8.844;2022-12-29T12:12:24;1.63;;;0.60;;
23304;SDS011;11821;51.456;8.844;2022-12-29T12:14:58;2.25;;;0.52;;
23304;SDS011;11821;51.456;8.844;2022-12-29T12:20:17;2.80;;;0.80;;
23304;SDS011;11821;51.456;8.844;2022-12-29T12:25:21;3.92;;;0.80;;
23304;SDS011;11821;51.456;8.844;2022-12-29T12:27:53;2.80;;;0.90;;
23304;SDS011;11821;51.456;8.844;2022-12-29T12:30:23;8.20;;;1.05;;
23304;SDS011;11821;51.456;8.844;2022-12-29T12:32:53;2.60;;;0.73;;
23304;SDS011;11821;51.456;8.844;2022-12-29T12:45:42;2.78;;;0.88;;
23304;SDS011;11821;51.456;8.844;2022-12-29T12:53:15;3.97;;;1.08;;
23304;SDS011;11821;51.456;8.844;2022-12-29T12:56:07;4.60;;;0.70;;
23304;SDS011;11821;51.456;8.844;2022-12-29T13:01:32;3.33;;;1.15;;
23304;SDS011;11821;51.456;8.844;2022-12-29T13:17:17;4.47;;;0.90;;
23304;SDS011;11821;51.456;8.844;2022-12-29T13:30:20;2.83;;;0.85;;
23304;SDS011;11821;51.456;8.844;2022-12-29T13:38:25;4.70;;;1.20;;
23304;SDS011;11821;51.456;8.844;2022-12-29T13:40:55;3.05;;;0.88;;
23304;SDS011;11821;51.456;8.844;2022-12-29T13:43:22;3.42;;;0.93;;
23304;SDS011;11821;51.456;8.844;2022-12-29T13:45:58;3.83;;;0.95;;
23304;SDS011;11821;51.456;8.844;2022-12-29T13:48:30;6.03;;;0.70;;
23304;SDS011;11821;51.456;8.844;2022-12-29T13:51:00;2.28;;;0.90;;
23304;SDS011;11821;51.456;8.844;2022-12-29T13:53:41;3.42;;;1.08;;
23304;SDS011;11821;51.456;8.844;2022-12-29T13:56:17;2.72;;;0.80;;
23304;SDS011;11821;51.456;8.844;2022-12-29T13:59:06;2.58;;;1.05;;
23304;SDS011;11821;51.456;8.844;2022-12-29T14:01:49;1.73;;;0.80;;
23304;SDS011;11821;51.456;8.844;2022-12-29T14:04:26;2.85;;;0.70;;
23304;SDS011;11821;51.456;8.844;2022-12-29T14:09:47;2.97;;;0.50;;
23304;SDS011;11821;51.456;8.844;2022-12-29T14:12:38;2.90;;;0.93;;
23304;SDS011;11821;51.456;8.844;2022-12-29T14:15:04;2.75;;;0.68;;
23304;SDS011;11821;51.456;8.844;2022-12-29T14:17:42;2.45;;;0.77;;
23304;SDS011;11821;51.456;8.844;2022-12-29T14:20:20;2.25;;;0.90;;
23304;SDS011;11821;51.456;8.844;2022-12-29T14:28:26;6.20;;;1.25;;
23304;SDS011;11821;51.456;8.844;2022-12-29T14:30:54;2.75;;;0.80;;
23304;SDS011;11821;51.456;8.844;2022-12-29T14:33:21;4.25;;;0.90;;
23304;SDS011;11821;51.456;8.844;2022-12-29T14:35:49;3.55;;;0.82;;
23304;SDS011;11821;51.456;8.844;2022-12-29T14:38:22;3.70;;;1.05;;
23304;SDS011;11821;51.456;8.844;2022-12-29T14:40:49;4.30;;;0.88;;
23304;SDS011;11821;51.456;8.844;2022-12-29T14:43:25;2.58;;;0.80;;
23304;SDS011;11821;51.456;8.844;2022-12-29T14:45:54;5.50;;;1.52;;
23304;SDS011;11821;51.456;8.844;2022-12-29T14:48:43;3.85;;;0.90;;
23304;SDS011;11821;51.456;8.844;2022-12-29T14:51:19;4.38;;;1.00;;
23304;SDS011;11821;51.456;8.844;2022-12-29T14:53:48;2.28;;;0.85;;
23304;SDS011;11821;51.456;8.844;2022-12-29T14:56:16;3.30;;;1.25;;
23304;SDS011;11821;51.456;8.844;2022-12-29T15:01:22;2.92;;;1.10;;
23304;SDS011;11821;51.456;8.844;2022-12-29T15:03:51;4.63;;;1.20;;
23304;SDS011;11821;51.456;8.844;2022-12-29T15:06:19;2.08;;;1.42;;
23304;SDS011;11821;51.456;8.844;2022-12-29T15:08:54;3.08;;;1.50;;
23304;SDS011;11821;51.456;8.844;2022-12-29T15:12:13;4.47;;;1.80;;
23304;SDS011;11821;51.456;8.844;2022-12-29T15:14:47;6.53;;;2.83;;
23304;SDS011;11821;51.456;8.844;2022-12-29T15:17:09;6.32;;;3.13;;
23304;SDS011;11821;51.456;8.844;2022-12-29T15:19:37;3.67;;;1.40;;
23304;SDS011;11821;51.456;8.844;2022-12-29T15:22:04;4.60;;;2.28;;
23304;SDS011;11821;51.456;8.844;2022-12-29T15:24:30;5.55;;;2.40;;
23304;SDS011;11821;51.456;8.844;2022-12-29T15:26:58;6.35;;;1.40;;
23304;SDS011;11821;51.456;8.844;2022-12-29T15:29:34;4.18;;;1.77;;
23304;SDS011;11821;51.456;8.844;2022-12-29T15:34:45;6.88;;;2.33;;
23304;SDS011;11821;51.456;8.844;2022-12-29T15:37:19;4.35;;;1.88;;
23304;SDS011;11821;51.456;8.844;2022-12-29T15:39:46;7.03;;;3.47;;
23304;SDS011;11821;51.456;8.844;2022-12-29T15:44:43;7.53;;;3.67;;
23304;SDS011;11821;51.456;8.844;2022-12-29T15:47:17;9.38;;;6.50;;
23304;SDS011;11821;51.456;8.844;2022-12-29T15:49:48;6.10;;;3.78;;
23304;SDS011;11821;51.456;8.844;2022-12-29T15:52:24;12.65;;;9.27;;
23304;SDS011;11821;51.456;8.844;2022-12-29T15:54:52;20.65;;;13.77;;
23304;SDS011;11821;51.456;8.844;2022-12-29T15:59:48;6.95;;;3.08;;
23304;SDS011;11821;51.456;8.844;2022-12-29T16:02:15;5.78;;;1.70;;
23304;SDS011;11821;51.456;8.844;2022-12-29T16:04:42;4.13;;;1.88;;
23304;SDS011;11821;51.456;8.844;2022-12-29T16:07:20;3.95;;;1.58;;
23304;SDS011;11821;51.456;8.844;2022-12-29T16:09:47;7.32;;;2.50;;
23304;SDS011;11821;51.456;8.844;2022-12-29T16:12:16;4.95;;;2.10;;
23304;SDS011;11821;51.456;8.844;2022-12-29T16:14:44;2.58;;;1.75;;
23304;SDS011;11821;51.456;8.844;2022-12-29T16:17:13;5.25;;;1.92;;
23304;SDS011;11821;51.456;8.844;2022-12-29T16:19:49;3.20;;;1.60;;
23304;SDS011;11821;51.456;8.844;2022-12-29T16:22:29;4.45;;;1.50;;
23304;SDS011;11821;51.456;8.844;2022-12-29T16:24:57;5.35;;;1.50;;
23304;SDS011;11821;51.456;8.844;2022-12-29T16:27:32;2.88;;;1.40;;
23304;SDS011;11821;51.456;8.844;2022-12-29T16:30:02;2.47;;;1.08;;
23304;SDS011;11821;51.456;8.844;2022-12-29T16:32:30;4.72;;;1.65;;
23304;SDS011;11821;51.456;8.844;2022-12-29T16:35:12;10.75;;;3.65;;
23304;SDS011;11821;51.456;8.844;2022-12-29T16:37:39;5.50;;;2.08;;
23304;SDS011;11821;51.456;8.844;2022-12-29T16:42:46;3.03;;;1.23;;
23304;SDS011;11821;51.456;8.844;2022-12-29T16:48:11;2.67;;;1.02;;
23304;SDS011;11821;51.456;8.844;2022-12-29T16:50:39;3.35;;;1.50;;
23304;SDS011;11821;51.456;8.844;2022-12-29T16:53:17;4.97;;;1.47;;
23304;SDS011;11821;51.456;8.844;2022-12-29T16:55:48;6.78;;;2.20;;
23304;SDS011;11821;51.456;8.844;2022-12-29T16:58:19;3.40;;;2.08;;
23304;SDS011;11821;51.456;8.844;2022-12-29T17:00:48;3.72;;;1.35;;
23304;SDS011;11821;51.456;8.844;2022-12-29T17:03:15;4.93;;;2.20;;
23304;SDS011;11821;51.456;8.844;2022-12-29T17:05:42;3.58;;;1.77;;
23304;SDS011;11821;51.456;8.844;2022-12-29T17:08:26;6.15;;;2.47;;
23304;SDS011;11821;51.456;8.844;2022-12-29T17:10:54;3.45;;;1.42;;
23304;SDS011;11821;51.456;8.844;2022-12-29T17:13:40;2.28;;;1.10;;
23304;SDS011;11821;51.456;8.844;2022-12-29T17:16:07;3.38;;;1.33;;
23304;SDS011;11821;51.456;8.844;2022-12-29T17:18:36;6.45;;;1.27;;
23304;SDS011;11821;51.456;8.844;2022-12-29T17:21:02;1.75;;;0.93;;
23304;SDS011;11821;51.456;8.844;2022-12-29T17:23:29;4.50;;;1.40;;
23304;SDS011;11821;51.456;8.844;2022-12-29T17:25:57;3.13;;;1.60;;
23304;SDS011;11821;51.456;8.844;2022-12-29T17:28:24;3.35;;;1.50;;
23304;SDS011;11821;51.456;8.844;2022-12-29T17:30:52;3.97;;;2.70;;
23304;SDS011;11821;51.456;8.844;2022-12-29T17:33:20;5.63;;;1.80;;
23304;SDS011;11821;51.456;8.844;2022-12-29T17:35:47;3.25;;;1.30;;
23304;SDS011;11821;51.456;8.844;2022-12-29T17:40:40;2.20;;;0.98;;
23304;SDS011;11821;51.456;8.844;2022-12-29T17:43:07;3.70;;;0.95;;